createdAt,value
2022-08-04T00:00:23.106Z,21.00
2022-08-04T00:02:31.674Z,21.00
2022-08-04T00:04:49.475Z,20.90
2022-08-04T00:06:54.033Z,20.90
2022-08-04T00:09:07.120Z,20.80
2022-08-04T00:11:12.005Z,20.80
2022-08-04T00:13:29.863Z,20.70
2022-08-04T00:15:35.184Z,20.70
2022-08-04T00:17:44.576Z,20.70
2022-08-04T00:19:48.990Z,20.70
2022-08-04T00:22:02.833Z,20.80
2022-08-04T00:24:11.344Z,20.90
2022-08-04T00:26:16.861Z,20.80
2022-08-04T00:28:19.301Z,20.80
2022-08-04T00:30:21.471Z,20.80
2022-08-04T00:32:33.678Z,20.70
2022-08-04T00:34:37.532Z,20.60
2022-08-04T00:36:48.216Z,20.60
2022-08-04T00:38:50.797Z,20.60
2022-08-04T00:41:15.089Z,20.60
2022-08-04T00:43:37.675Z,20.70
2022-08-04T00:46:16.247Z,20.70
2022-08-04T00:48:25.869Z,20.80
2022-08-04T00:50:50.340Z,20.80
2022-08-04T00:53:13.248Z,20.80
2022-08-04T00:55:42.940Z,20.70
2022-08-04T00:57:47.707Z,20.70
2022-08-04T01:00:10.463Z,20.50
2022-08-04T01:02:52.709Z,20.50
2022-08-04T01:05:20.370Z,20.50
2022-08-04T01:07:38.047Z,20.40
2022-08-04T01:09:51.533Z,20.40
2022-08-04T01:12:30.201Z,20.40
2022-08-04T01:15:10.765Z,20.40
2022-08-04T01:17:23.189Z,20.40
2022-08-04T01:19:55.652Z,20.40
2022-08-04T01:22:22.978Z,20.30
2022-08-04T01:24:58.114Z,20.30
2022-08-04T01:27:17.645Z,20.20
2022-08-04T01:29:25.167Z,20.30
2022-08-04T01:31:40.983Z,20.30
2022-08-04T01:34:03.446Z,20.30
2022-08-04T01:36:11.832Z,20.20
2022-08-04T01:38:36.508Z,20.10
2022-08-04T01:40:39.353Z,20.10
2022-08-04T01:42:42.466Z,20.00
2022-08-04T01:44:47.897Z,20.00
2022-08-04T01:46:52.856Z,20.00
2022-08-04T01:48:56.416Z,19.90
2022-08-04T01:51:02.943Z,19.80
2022-08-04T01:53:05.022Z,19.70
2022-08-04T01:55:10.169Z,19.70
2022-08-04T01:57:36.869Z,19.70
2022-08-04T01:59:35.916Z,19.70
2022-08-04T02:01:37.727Z,19.60
2022-08-04T02:04:19.482Z,19.60
2022-08-04T02:06:41.000Z,19.60
2022-08-04T02:09:17.382Z,19.60
2022-08-04T02:11:22.821Z,19.60
2022-08-04T02:13:37.029Z,19.60
2022-08-04T02:16:03.583Z,19.60
2022-08-04T02:18:11.151Z,19.50
2022-08-04T02:20:19.207Z,19.60
2022-08-04T02:22:22.355Z,19.60
2022-08-04T02:24:27.772Z,19.60
2022-08-04T02:26:32.367Z,19.60
2022-08-04T02:28:39.909Z,19.50
2022-08-04T02:31:04.967Z,19.50
2022-08-04T02:33:10.039Z,19.50
2022-08-04T02:35:26.873Z,19.40
2022-08-04T02:37:35.056Z,19.40
2022-08-04T02:39:41.464Z,19.50
2022-08-04T02:41:52.815Z,19.40
2022-08-04T02:44:03.417Z,19.30
2022-08-04T02:46:06.160Z,19.40
2022-08-04T02:48:30.997Z,19.30
2022-08-04T02:50:35.805Z,19.30
2022-08-04T02:52:39.586Z,19.30
2022-08-04T02:54:45.596Z,19.30
2022-08-04T02:56:50.895Z,19.30
2022-08-04T02:59:01.627Z,19.30
2022-08-04T03:01:04.949Z,19.20
2022-08-04T03:03:21.302Z,19.20
2022-08-04T03:05:28.035Z,19.20
2022-08-04T03:07:52.184Z,19.20
2022-08-04T03:10:09.142Z,19.10
2022-08-04T03:12:32.149Z,19.10
2022-08-04T03:14:35.000Z,19.10
2022-08-04T03:17:00.997Z,19.10
2022-08-04T03:19:42.850Z,19.00
2022-08-04T03:21:44.520Z,19.20
2022-08-04T03:23:46.235Z,19.20
2022-08-04T03:26:21.906Z,19.10
2022-08-04T03:28:29.635Z,19.00
2022-08-04T03:30:43.413Z,18.90
2022-08-04T03:33:06.029Z,19.00
2022-08-04T03:35:22.891Z,19.00
2022-08-04T03:37:43.844Z,19.00
2022-08-04T03:40:10.795Z,19.00
2022-08-04T03:42:44.508Z,18.90
2022-08-04T03:45:04.936Z,18.80
2022-08-04T03:47:33.289Z,18.80
2022-08-04T03:50:07.240Z,18.70
2022-08-04T03:52:47.314Z,18.70
2022-08-04T03:55:10.747Z,18.70
2022-08-04T03:57:52.173Z,18.80
2022-08-04T04:00:15.598Z,18.90
2022-08-04T04:02:34.669Z,18.90
2022-08-04T04:04:57.132Z,18.80
2022-08-04T04:07:27.873Z,18.70
2022-08-04T04:10:07.022Z,18.70
2022-08-04T04:12:47.764Z,18.80
2022-08-04T04:15:28.003Z,18.80
2022-08-04T04:17:58.814Z,18.80
2022-08-04T04:20:35.654Z,18.80
2022-08-04T04:23:01.486Z,18.90
2022-08-04T04:25:35.987Z,18.80
2022-08-04T04:28:44.557Z,18.70
2022-08-04T04:30:42.635Z,18.80
2022-08-04T04:33:08.749Z,18.70
2022-08-04T04:35:14.872Z,18.80
2022-08-04T04:37:26.275Z,18.80
2022-08-04T04:39:39.942Z,18.80
2022-08-04T04:41:52.289Z,18.80
2022-08-04T04:44:06.316Z,18.80
2022-08-04T04:46:37.021Z,18.80
2022-08-04T04:49:00.895Z,18.80
2022-08-04T04:51:10.705Z,18.80
2022-08-04T04:53:23.316Z,18.90
2022-08-04T04:55:48.408Z,18.80
2022-08-04T04:57:54.790Z,18.80
2022-08-04T05:00:12.838Z,18.90
2022-08-04T05:02:32.335Z,18.90
2022-08-04T05:05:11.029Z,18.90
2022-08-04T05:07:15.818Z,18.90
2022-08-04T05:09:58.027Z,18.90
2022-08-04T05:12:02.909Z,19.00
2022-08-04T05:14:35.736Z,19.00
2022-08-04T05:16:46.766Z,19.10
2022-08-04T05:19:02.068Z,19.10
2022-08-04T05:22:02.038Z,19.20
2022-08-04T05:24:09.138Z,19.30
2022-08-04T05:26:15.697Z,19.30
2022-08-04T05:28:39.479Z,19.40
2022-08-04T05:31:00.307Z,19.40
2022-08-04T05:33:09.643Z,19.40
2022-08-04T05:35:13.604Z,19.40
2022-08-04T05:37:24.009Z,19.50
2022-08-04T05:39:55.945Z,19.60
2022-08-04T05:42:04.458Z,19.70
2022-08-04T05:44:09.089Z,19.70
2022-08-04T05:46:13.868Z,19.70
2022-08-04T05:48:16.550Z,19.90
2022-08-04T05:50:19.704Z,20.10
2022-08-04T05:52:22.810Z,20.10
2022-08-04T05:54:25.602Z,20.20
2022-08-04T05:56:33.394Z,20.20
2022-08-04T05:58:35.804Z,20.20
2022-08-04T06:00:41.631Z,20.20
2022-08-04T06:02:49.355Z,20.30
2022-08-04T06:04:52.350Z,20.30
2022-08-04T06:06:57.072Z,20.40
2022-08-04T06:09:01.588Z,20.40
2022-08-04T06:11:09.573Z,20.40
2022-08-04T06:13:48.823Z,20.50
2022-08-04T06:15:44.379Z,20.60
2022-08-04T06:18:33.524Z,20.60
2022-08-04T06:20:23.934Z,20.70
2022-08-04T06:22:29.054Z,20.80
2022-08-04T06:24:32.969Z,20.80
2022-08-04T06:26:36.564Z,20.90
2022-08-04T06:28:41.951Z,20.90
2022-08-04T06:30:48.225Z,21.00
2022-08-04T06:33:04.164Z,21.00
2022-08-04T06:35:08.219Z,21.10
2022-08-04T06:37:10.561Z,21.20
2022-08-04T06:39:13.376Z,21.20
2022-08-04T06:41:16.262Z,21.30
2022-08-04T06:43:23.093Z,21.40
2022-08-04T06:45:27.778Z,21.50
2022-08-04T06:47:31.434Z,21.50
2022-08-04T06:49:55.215Z,21.50
2022-08-04T06:51:58.235Z,21.50
2022-08-04T06:54:00.317Z,21.60
2022-08-04T06:56:04.358Z,21.70
2022-08-04T06:58:10.071Z,21.80
2022-08-04T07:00:14.347Z,21.70
2022-08-04T07:02:20.705Z,21.80
2022-08-04T07:04:22.699Z,22.00
2022-08-04T07:06:25.536Z,22.00
2022-08-04T07:08:27.995Z,22.10
2022-08-04T07:10:30.576Z,22.10
2022-08-04T07:12:33.549Z,22.10
2022-08-04T07:14:36.454Z,22.20
2022-08-04T07:16:43.492Z,22.20
2022-08-04T07:18:45.465Z,22.40
2022-08-04T07:20:47.241Z,22.50
2022-08-04T07:22:50.290Z,22.40
2022-08-04T07:24:56.109Z,22.50
2022-08-04T07:26:59.231Z,22.60
2022-08-04T07:29:01.320Z,22.70
2022-08-04T07:31:05.271Z,22.80
2022-08-04T07:33:07.971Z,22.90
2022-08-04T07:36:03.765Z,22.90
2022-08-04T07:37:39.341Z,23.00
2022-08-04T07:39:47.675Z,22.90
2022-08-04T07:41:51.577Z,23.00
2022-08-04T07:43:54.912Z,23.20
2022-08-04T07:45:58.852Z,23.20
2022-08-04T07:48:05.023Z,23.30
2022-08-04T07:50:12.401Z,23.40
2022-08-04T07:52:15.428Z,23.50
2022-08-04T07:54:18.325Z,23.50
2022-08-04T07:56:20.191Z,23.50
2022-08-04T07:58:28.450Z,23.70
2022-08-04T08:00:32.456Z,23.90
2022-08-04T08:02:35.638Z,24.00
2022-08-04T08:04:37.797Z,23.90
2022-08-04T08:06:43.133Z,24.00
2022-08-04T08:08:45.353Z,24.10
2022-08-04T08:10:51.344Z,24.20
2022-08-04T08:12:53.742Z,24.20
2022-08-04T08:14:58.776Z,24.30
2022-08-04T08:17:02.745Z,24.50
2022-08-04T08:19:05.715Z,24.50
2022-08-04T08:21:11.292Z,24.40
2022-08-04T08:23:15.874Z,24.50
2022-08-04T08:25:21.156Z,24.70
2022-08-04T08:27:23.808Z,25.00
2022-08-04T08:29:26.881Z,25.10
2022-08-04T08:31:56.486Z,25.30
2022-08-04T08:33:52.289Z,25.20
2022-08-04T08:36:03.380Z,25.30
2022-08-04T08:38:06.769Z,25.40
2022-08-04T08:40:18.248Z,25.60
2022-08-04T08:42:44.762Z,25.50
2022-08-04T08:45:30.719Z,25.60
2022-08-04T08:48:20.654Z,25.70
2022-08-04T08:50:40.589Z,25.80
2022-08-04T08:53:19.803Z,26.00
2022-08-04T08:55:58.960Z,26.20
2022-08-04T08:58:00.881Z,26.20
2022-08-04T09:00:16.590Z,26.50
2022-08-04T09:02:32.958Z,26.50
2022-08-04T09:04:53.283Z,26.60
2022-08-04T09:07:48.339Z,26.60
2022-08-04T09:12:59.394Z,27.20
2022-08-04T09:15:08.462Z,27.50
2022-08-04T09:17:27.225Z,27.60
2022-08-04T09:19:42.239Z,27.70
2022-08-04T09:21:58.066Z,27.60
2022-08-04T09:24:35.708Z,27.90
2022-08-04T09:26:59.748Z,28.00
2022-08-04T09:29:21.899Z,28.10
2022-08-04T09:31:51.421Z,28.20
2022-08-04T09:34:26.773Z,28.30
2022-08-04T09:36:51.097Z,28.50
2022-08-04T09:39:04.759Z,28.40
2022-08-04T09:41:49.026Z,28.70
2022-08-04T09:44:50.725Z,28.70
2022-08-04T09:46:53.933Z,29.00
2022-08-04T09:49:04.926Z,29.10
2022-08-04T09:51:58.087Z,29.00
2022-08-04T09:54:31.234Z,28.90
2022-08-04T09:56:42.697Z,29.40
2022-08-04T09:59:03.314Z,29.70
2022-08-04T10:01:23.379Z,29.90
2022-08-04T10:03:31.579Z,30.10
2022-08-04T10:05:49.547Z,30.00
2022-08-04T10:08:33.706Z,30.10
2022-08-04T10:11:02.402Z,30.50
2022-08-04T10:13:29.322Z,30.70
2022-08-04T10:15:49.849Z,30.60
2022-08-04T10:18:21.765Z,30.80
2022-08-04T10:20:51.711Z,31.10
2022-08-04T10:23:27.098Z,31.00
2022-08-04T10:26:08.551Z,31.00
2022-08-04T10:28:15.579Z,31.50
2022-08-04T10:30:19.332Z,31.70
2022-08-04T10:32:43.132Z,31.80
2022-08-04T10:35:02.730Z,31.90
2022-08-04T10:37:59.218Z,32.20
2022-08-04T10:40:22.414Z,32.40
2022-08-04T10:42:31.057Z,32.60
2022-08-04T10:44:47.767Z,33.20
2022-08-04T10:47:01.499Z,33.40
2022-08-04T10:49:26.678Z,33.50
2022-08-04T10:51:57.572Z,33.60
2022-08-04T10:54:00.572Z,34.20
2022-08-04T10:56:09.601Z,34.50
2022-08-04T10:58:19.084Z,34.60
2022-08-04T11:00:27.212Z,34.70
2022-08-04T11:02:54.457Z,35.00
2022-08-04T11:05:10.065Z,34.90
2022-08-04T11:07:18.333Z,34.90
2022-08-04T11:09:21.290Z,35.20
2022-08-04T11:12:00.365Z,34.90
2022-08-04T11:14:21.204Z,35.20
2022-08-04T11:16:31.466Z,35.30
2022-08-04T11:18:54.028Z,35.80
2022-08-04T11:21:10.725Z,35.90
2022-08-04T11:23:17.436Z,36.20
2022-08-04T11:25:25.229Z,36.30
2022-08-04T11:27:43.421Z,36.50
2022-08-04T11:30:06.100Z,36.80
2022-08-04T11:32:14.452Z,37.00
2022-08-04T11:34:21.614Z,36.80
2022-08-04T11:36:38.758Z,36.80
2022-08-04T11:39:01.956Z,37.20
2022-08-04T11:41:11.841Z,37.50
2022-08-04T11:43:56.230Z,37.50
2022-08-04T11:46:03.585Z,37.30
2022-08-04T11:48:28.744Z,37.50
2022-08-04T11:50:53.942Z,37.90
2022-08-04T11:52:58.204Z,37.90
2022-08-04T11:55:03.736Z,38.40
2022-08-04T11:57:06.271Z,38.20
2022-08-04T11:59:08.935Z,38.50
2022-08-04T12:01:22.780Z,38.50
2022-08-04T12:04:03.987Z,37.70
2022-08-04T12:06:30.595Z,37.90
2022-08-04T12:08:51.812Z,39.10
2022-08-04T12:11:21.499Z,40.10
2022-08-04T12:13:42.510Z,40.70
2022-08-04T12:16:11.570Z,41.30
2022-08-04T12:18:32.855Z,41.40
2022-08-04T12:20:48.600Z,41.20
2022-08-04T12:22:52.758Z,41.80
2022-08-04T12:24:59.859Z,41.90
2022-08-04T12:27:15.622Z,42.40
2022-08-04T12:29:20.156Z,42.50
2022-08-04T12:31:45.913Z,42.20
2022-08-04T12:34:08.363Z,42.80
2022-08-04T12:36:27.784Z,42.40
2022-08-04T12:38:33.216Z,42.40
2022-08-04T12:40:51.742Z,42.60
2022-08-04T12:43:13.034Z,42.80
2022-08-04T12:45:17.060Z,43.40
2022-08-04T12:47:29.232Z,43.20
2022-08-04T12:49:34.567Z,43.60
2022-08-04T12:52:08.041Z,43.70
2022-08-04T12:54:07.214Z,43.20
2022-08-04T12:56:14.357Z,43.60
2022-08-04T12:58:42.054Z,43.70
2022-08-04T13:00:44.160Z,44.20
2022-08-04T13:02:47.529Z,43.80
2022-08-04T13:04:51.749Z,43.70
2022-08-04T13:07:01.343Z,44.00
2022-08-04T13:09:18.561Z,43.70
2022-08-04T13:11:22.152Z,44.20
2022-08-04T13:13:28.967Z,43.50
2022-08-04T13:15:33.566Z,42.80
2022-08-04T13:18:03.049Z,43.60
2022-08-04T13:20:05.126Z,44.20
2022-08-04T13:22:07.044Z,44.40
2022-08-04T13:24:22.881Z,44.50
2022-08-04T13:26:44.795Z,44.50
2022-08-04T13:29:01.262Z,44.20
2022-08-04T13:31:20.607Z,43.70
2022-08-04T13:33:29.238Z,43.70
2022-08-04T13:35:55.717Z,43.60
2022-08-04T13:37:58.290Z,44.10
2022-08-04T13:40:02.086Z,44.20
2022-08-04T13:42:09.826Z,44.50
2022-08-04T13:44:17.362Z,42.80
2022-08-04T13:46:29.350Z,43.10
2022-08-04T13:48:37.935Z,43.50
2022-08-04T13:50:45.877Z,44.10
2022-08-04T13:52:52.753Z,44.10
2022-08-04T13:54:54.537Z,43.00
2022-08-04T13:57:00.511Z,41.00
2022-08-04T13:59:06.015Z,40.00
2022-08-04T14:01:19.469Z,39.90
2022-08-04T14:03:34.555Z,39.60
2022-08-04T14:06:13.440Z,39.40
2022-08-04T14:08:27.981Z,39.70
2022-08-04T14:10:34.805Z,39.50
2022-08-04T14:12:46.988Z,38.40
2022-08-04T14:14:53.708Z,38.00
2022-08-04T14:16:57.811Z,38.60
2022-08-04T14:19:06.196Z,38.40
2022-08-04T14:21:11.349Z,38.40
2022-08-04T14:23:13.352Z,39.00
2022-08-04T14:25:18.551Z,39.30
2022-08-04T14:27:20.437Z,39.20
2022-08-04T14:29:28.114Z,39.40
2022-08-04T14:31:33.396Z,39.30
2022-08-04T14:34:04.176Z,39.70
2022-08-04T14:36:04.084Z,39.60
2022-08-04T14:38:08.799Z,39.60
2022-08-04T14:40:30.565Z,39.30
2022-08-04T14:42:43.587Z,39.40
2022-08-04T14:44:56.697Z,39.00
2022-08-04T14:47:02.203Z,39.10
2022-08-04T14:49:09.957Z,39.20
2022-08-04T14:51:14.979Z,39.10
2022-08-04T14:53:20.185Z,39.40
2022-08-04T14:55:24.762Z,39.90
2022-08-04T14:57:27.260Z,39.60
2022-08-04T15:00:00.748Z,39.80
2022-08-04T15:02:04.630Z,39.60
2022-08-04T15:04:07.009Z,39.30
2022-08-04T15:06:15.115Z,39.30
2022-08-04T15:08:19.263Z,39.70
2022-08-04T15:10:21.118Z,40.70
2022-08-04T15:12:23.325Z,40.60
2022-08-04T15:14:37.745Z,40.30
2022-08-04T15:16:39.882Z,40.90
2022-08-04T15:18:57.649Z,41.20
2022-08-04T15:21:02.998Z,40.80
2022-08-04T15:23:10.463Z,41.70
2022-08-04T15:25:15.628Z,43.00
2022-08-04T15:27:19.807Z,44.50
2022-08-04T15:29:30.474Z,46.20
2022-08-04T15:32:06.395Z,47.10
2022-08-04T15:34:11.774Z,47.40
2022-08-04T15:36:20.669Z,47.90
2022-08-04T15:38:36.310Z,47.50
2022-08-04T15:40:37.983Z,45.80
2022-08-04T15:42:46.754Z,44.10
2022-08-04T15:44:51.490Z,42.80
2022-08-04T15:47:14.706Z,41.90
2022-08-04T15:49:24.172Z,42.30
2022-08-04T15:51:30.483Z,41.40
2022-08-04T15:54:02.550Z,39.80
2022-08-04T15:56:04.295Z,40.60
2022-08-04T15:58:11.799Z,40.30
2022-08-04T16:00:15.219Z,40.10
2022-08-04T16:02:29.465Z,40.50
2022-08-04T16:04:34.381Z,40.70
2022-08-04T16:06:36.074Z,40.90
2022-08-04T16:09:02.215Z,40.50
2022-08-04T16:11:05.004Z,40.60
2022-08-04T16:13:14.531Z,40.40
2022-08-04T16:15:42.322Z,40.30
2022-08-04T16:17:45.686Z,39.40
2022-08-04T16:20:02.703Z,39.70
2022-08-04T16:22:04.919Z,39.90
2022-08-04T16:24:18.473Z,39.90
2022-08-04T16:26:45.535Z,39.80
2022-08-04T16:28:47.902Z,39.90
2022-08-04T16:30:50.228Z,40.00
2022-08-04T16:32:54.686Z,40.00
2022-08-04T16:35:00.916Z,39.80
2022-08-04T16:37:05.567Z,39.70
2022-08-04T16:39:07.324Z,39.60
2022-08-04T16:41:09.481Z,39.40
2022-08-04T16:43:20.157Z,39.40
2022-08-04T16:45:22.186Z,39.20
2022-08-04T16:47:49.437Z,38.90
2022-08-04T16:50:02.203Z,39.00
2022-08-04T16:52:08.454Z,38.40
2022-08-04T16:54:12.531Z,38.40
2022-08-04T16:56:18.603Z,38.30
2022-08-04T16:58:32.668Z,38.30
2022-08-04T17:00:36.638Z,38.20
2022-08-04T17:02:39.011Z,38.20
2022-08-04T17:04:40.864Z,38.30
2022-08-04T17:06:44.329Z,38.30
2022-08-04T17:08:49.289Z,38.20
2022-08-04T17:10:51.283Z,38.30
2022-08-04T17:13:03.721Z,38.10
2022-08-04T17:15:32.662Z,38.00
2022-08-04T17:18:03.860Z,37.90
2022-08-04T17:19:58.892Z,37.90
2022-08-04T17:22:10.374Z,37.30
2022-08-04T17:24:13.077Z,36.80
2022-08-04T17:26:22.129Z,36.30
2022-08-04T17:28:28.666Z,35.90
2022-08-04T17:30:37.329Z,35.60
2022-08-04T17:32:40.309Z,35.20
2022-08-04T17:34:45.966Z,34.90
2022-08-04T17:36:48.366Z,34.70
2022-08-04T17:38:54.990Z,34.50
2022-08-04T17:41:00.620Z,34.40
2022-08-04T17:44:03.724Z,34.20
2022-08-04T17:45:53.858Z,34.20
2022-08-04T17:47:58.693Z,34.00
2022-08-04T17:50:11.614Z,33.90
2022-08-04T17:52:41.560Z,33.80
2022-08-04T17:54:44.459Z,33.70
2022-08-04T17:56:52.456Z,33.50
2022-08-04T17:59:55.884Z,33.40
2022-08-04T18:01:58.406Z,33.20
2022-08-04T18:04:00.174Z,33.20
2022-08-04T18:06:15.490Z,33.00
2022-08-04T18:08:40.282Z,32.80
2022-08-04T18:10:51.756Z,32.80
2022-08-04T18:12:56.234Z,32.60
2022-08-04T18:15:06.178Z,32.40
2022-08-04T18:18:03.355Z,32.20
2022-08-04T18:19:35.891Z,32.10
2022-08-04T18:24:15.620Z,31.80
2022-08-04T18:26:18.005Z,31.70
2022-08-04T18:28:26.428Z,31.50
2022-08-04T18:30:38.480Z,31.50
2022-08-04T18:33:10.463Z,31.40
2022-08-04T18:35:16.984Z,31.20
2022-08-04T18:38:06.623Z,31.00
2022-08-04T18:40:10.917Z,30.80
2022-08-04T18:42:06.449Z,30.70
2022-08-04T18:44:08.300Z,30.50
2022-08-04T18:46:14.789Z,30.50
2022-08-04T18:48:17.050Z,30.40
2022-08-04T18:50:40.009Z,30.30
2022-08-04T18:52:45.347Z,30.30
2022-08-04T18:54:51.086Z,30.10
2022-08-04T18:57:24.316Z,30.00
2022-08-04T18:59:19.650Z,29.80
2022-08-04T19:01:21.949Z,29.80
2022-08-04T19:03:33.544Z,29.70
2022-08-04T19:05:37.870Z,29.60
2022-08-04T19:08:02.239Z,29.50
2022-08-04T19:10:06.769Z,29.30
2022-08-04T19:12:28.935Z,29.20
2022-08-04T19:14:30.824Z,29.10
2022-08-04T19:16:36.023Z,29.00
2022-08-04T19:18:41.448Z,29.00
2022-08-04T19:20:46.914Z,28.90
2022-08-04T19:24:27.131Z,28.80
2022-08-04T19:28:05.738Z,28.50
2022-08-04T19:30:19.407Z,28.40
2022-08-04T19:32:27.261Z,28.30
2022-08-04T19:34:34.693Z,28.40
2022-08-04T19:36:39.983Z,28.40
2022-08-04T19:38:48.323Z,28.30
2022-08-04T19:40:52.615Z,28.20
2022-08-04T19:43:04.902Z,28.30
2022-08-04T19:45:16.850Z,28.80
2022-08-04T19:48:17.949Z,29.00
2022-08-04T19:50:05.314Z,28.90
2022-08-04T19:52:07.303Z,29.00
2022-08-04T19:54:17.165Z,28.90
2022-08-04T19:56:27.861Z,28.80
2022-08-04T19:58:47.454Z,28.90
2022-08-04T20:01:33.482Z,28.80
2022-08-04T20:04:08.890Z,28.60
2022-08-04T20:06:32.796Z,28.60
2022-08-04T20:11:20.124Z,28.60
2022-08-04T20:13:42.392Z,28.50
2022-08-04T20:16:02.657Z,28.40
2022-08-04T20:18:36.574Z,28.30
2022-08-04T20:24:38.229Z,27.90
2022-08-04T20:26:54.870Z,27.60
2022-08-04T20:29:06.303Z,28.00
2022-08-04T20:31:12.349Z,28.10
2022-08-04T20:33:21.807Z,28.20
2022-08-04T20:36:04.996Z,28.00
2022-08-04T20:38:08.573Z,28.00
2022-08-04T20:40:30.561Z,28.00
2022-08-04T20:42:34.183Z,28.10
2022-08-04T20:44:36.148Z,28.20
2022-08-04T20:46:44.131Z,28.00
2022-08-04T20:48:46.153Z,27.70
2022-08-04T20:50:49.336Z,27.30
2022-08-04T20:52:51.112Z,27.30
2022-08-04T20:54:56.216Z,27.40
2022-08-04T20:56:59.726Z,27.40
2022-08-04T20:59:01.808Z,27.40
2022-08-04T21:01:11.000Z,27.20
2022-08-04T21:03:16.293Z,26.90
2022-08-04T21:05:18.162Z,26.90
2022-08-04T21:07:22.071Z,26.80
2022-08-04T21:09:26.625Z,26.80
2022-08-04T21:11:44.687Z,26.40
2022-08-04T21:13:52.944Z,26.20
2022-08-04T21:15:59.140Z,26.00
2022-08-04T21:18:04.320Z,25.90
2022-08-04T21:20:07.113Z,25.90
2022-08-04T21:22:16.585Z,25.70
2022-08-04T21:24:31.631Z,25.60
2022-08-04T21:26:35.892Z,25.60
2022-08-04T21:28:44.790Z,25.60
2022-08-04T21:30:53.965Z,25.50
2022-08-04T21:32:56.806Z,25.40
2022-08-04T21:35:00.481Z,25.40
2022-08-04T21:37:10.046Z,25.30
2022-08-04T21:39:12.948Z,25.30
2022-08-04T21:41:24.443Z,25.30
2022-08-04T21:43:29.859Z,25.20
2022-08-04T21:45:44.652Z,25.00
2022-08-04T21:47:51.186Z,24.90
2022-08-04T21:49:56.448Z,25.00
2022-08-04T21:52:01.677Z,25.00
2022-08-04T21:54:16.869Z,25.00
2022-08-04T21:56:26.620Z,25.00
2022-08-04T21:58:29.137Z,25.00
2022-08-04T22:00:34.824Z,25.10
2022-08-04T22:02:38.630Z,25.00
2022-08-04T22:04:41.301Z,24.90
2022-08-04T22:06:47.594Z,24.80
2022-08-04T22:08:53.639Z,24.80
2022-08-04T22:10:57.908Z,24.80
2022-08-04T22:13:00.101Z,24.70
2022-08-04T22:15:24.144Z,24.70
2022-08-04T22:17:36.438Z,24.80
2022-08-04T22:19:50.054Z,24.60
2022-08-04T22:21:57.135Z,24.60
2022-08-04T22:23:59.774Z,24.60
2022-08-04T22:26:04.123Z,24.50
2022-08-04T22:28:07.997Z,24.40
2022-08-04T22:30:17.165Z,24.40
2022-08-04T22:32:19.660Z,24.40
2022-08-04T22:34:22.616Z,24.30
2022-08-04T22:36:25.993Z,24.20
2022-08-04T22:38:48.752Z,24.20
2022-08-04T22:41:00.756Z,24.20
2022-08-04T22:43:03.389Z,24.10
2022-08-04T22:45:28.939Z,24.00
2022-08-04T22:47:53.366Z,23.90
2022-08-04T22:50:13.318Z,23.90
2022-08-04T22:52:26.128Z,23.80
2022-08-04T22:54:31.923Z,23.70
2022-08-04T22:56:38.320Z,23.80
2022-08-04T22:58:45.292Z,23.80
2022-08-04T23:00:53.190Z,23.80
2022-08-04T23:02:59.922Z,23.70
2022-08-04T23:05:01.940Z,23.60
2022-08-04T23:07:05.223Z,23.70
2022-08-04T23:09:15.893Z,23.70
2022-08-04T23:11:18.404Z,23.70
2022-08-04T23:13:20.300Z,23.80
2022-08-04T23:15:22.864Z,23.90
2022-08-04T23:17:27.341Z,23.80
2022-08-04T23:19:31.941Z,23.70
2022-08-04T23:21:40.997Z,23.60
2022-08-04T23:24:01.963Z,23.50
2022-08-04T23:26:14.533Z,23.50
2022-08-04T23:28:16.292Z,23.70
2022-08-04T23:30:19.561Z,23.60
2022-08-04T23:32:24.124Z,23.50
2022-08-04T23:34:29.148Z,23.40
2022-08-04T23:36:32.573Z,23.40
2022-08-04T23:38:34.666Z,23.30
2022-08-04T23:40:50.307Z,23.40
2022-08-04T23:42:52.514Z,23.50
2022-08-04T23:44:54.830Z,23.50
2022-08-04T23:47:01.151Z,23.50
2022-08-04T23:49:03.126Z,23.40
2022-08-04T23:51:13.688Z,23.40
2022-08-04T23:53:22.487Z,23.50
2022-08-04T23:55:25.182Z,23.40
2022-08-04T23:58:05.631Z,23.50
2022-08-04T23:59:58.536Z,23.50
